Time;durP1;ratioP1;P1;durP2;ratioP2;P2;SDS_P1;SDS_P2;PMS_P1;PMS_P2;Temp;Humidity;BMP_temperature;BMP_pressure;BME280_temperature;BME280_humidity;BME280_pressure;Samples;Min_cycle;Max_cycle;Signal;HPM_P1;HPM_P2
2022/01/30 00:02:23;;;;;;;16.77;10.45;;;;;;;2.32;100.00;101601.66;4901098;29;20042;-71
2022/01/30 00:05:09;;;;;;;21.73;11.45;;;;;;;2.62;100.00;101599.94;4900508;29;20049;-71
2022/01/30 00:07:54;;;;;;;19.38;10.20;;;;;;;2.27;100.00;101595.50;4901307;29;20037;-71
2022/01/30 00:10:41;;;;;;;16.63;10.48;;;;;;;2.23;100.00;101583.31;4901281;29;20028;-71
2022/01/30 00:13:28;;;;;;;16.48;10.48;;;;;;;2.35;100.00;101568.16;4909094;29;20036;-71
2022/01/30 00:16:17;;;;;;;18.35;10.77;;;;;;;2.33;100.00;101576.69;4900683;29;20039;-72
2022/01/30 00:21:59;;;;;;;20.45;11.50;;;;;;;1.81;100.00;101574.22;4899906;29;20033;-72
2022/01/30 00:24:53;;;;;;;18.15;10.52;;;;;;;2.17;100.00;101561.56;4900044;29;20032;-72
2022/01/30 01:36:55;;;;;;;16.52;9.90;;;;;;;1.94;100.00;101449.78;5951326;23;20022;-72
2022/01/30 01:39:41;;;;;;;17.25;9.95;;;;;;;1.79;100.00;101445.84;4956055;29;20404;-72
2022/01/30 01:42:31;;;;;;;15.60;9.93;;;;;;;1.82;100.00;101451.13;4956431;29;20031;-72
2022/01/30 01:45:22;;;;;;;17.38;10.40;;;;;;;1.91;100.00;101441.94;4949547;29;20078;-72
2022/01/30 01:48:11;;;;;;;15.15;9.68;;;;;;;1.66;100.00;101434.31;4936577;29;20046;-72
2022/01/30 01:51:15;;;;;;;16.83;9.50;;;;;;;1.74;100.00;101426.78;4936596;29;20060;-73
2022/01/30 01:54:00;;;;;;;18.23;10.32;;;;;;;1.77;100.00;101425.16;4935993;29;20090;-72
2022/01/30 01:56:46;;;;;;;16.85;10.23;;;;;;;1.83;100.00;101420.19;4936598;29;20028;-72
2022/01/30 01:59:32;;;;;;;18.05;10.57;;;;;;;1.77;100.00;101419.13;4936830;29;20028;-72
2022/01/30 07:07:03;;;;;;;12.90;5.93;;;;;;;3.82;74.98;100898.25;4951642;29;20043;-72
2022/01/30 07:09:49;;;;;;;11.10;5.63;;;;;;;4.17;74.29;100902.13;4944172;29;20054;-72
2022/01/30 09:51:04;;;;;;;7.78;4.22;;;;;;;6.39;51.54;100628.72;5412075;23;20075;-73
2022/01/30 09:53:50;;;;;;;6.82;4.20;;;;;;;6.68;51.29;100627.78;4956014;29;20126;-72
2022/01/30 09:56:36;;;;;;;4.97;3.85;;;;;;;6.72;50.72;100626.03;4956619;28;20031;-73
2022/01/30 09:59:22;;;;;;;6.97;4.15;;;;;;;7.12;50.35;100602.38;4955941;29;20110;-72
2022/01/30 10:02:09;;;;;;;8.25;3.83;;;;;;;6.78;50.98;100599.94;4956209;29;20038;-73
2022/01/30 10:04:54;;;;;;;7.90;3.95;;;;;;;6.75;50.48;100605.19;4955387;29;20094;-75
2022/01/30 10:07:44;;;;;;;6.13;4.30;;;;;;;7.09;50.34;100596.34;4953194;29;20049;-74
2022/01/30 10:10:30;;;;;;;8.38;3.70;;;;;;;7.35;49.58;100597.91;4954053;29;20027;-74
2022/01/30 10:40:23;;;;;;;9.05;3.35;;;;;;;8.40;49.35;100583.97;5555009;23;20051;-72
2022/01/30 10:43:09;;;;;;;10.23;3.50;;;;;;;8.52;49.47;100583.84;4959344;29;20028;-73
2022/01/30 10:45:55;;;;;;;5.35;3.30;;;;;;;8.71;50.23;100587.09;4959597;28;20141;-72
2022/01/30 10:48:53;;;;;;;6.95;3.45;;;;;;;9.03;49.77;100580.59;4959417;29;20042;-73
2022/01/30 10:51:41;;;;;;;13.15;4.35;;;;;;;8.94;49.82;100572.00;4958852;29;20352;-72
2022/01/30 10:54:34;;;;;;;32.38;4.75;;;;;;;9.07;49.48;100558.75;4958079;29;20019;-74
2022/01/30 10:57:20;;;;;;;9.07;3.40;;;;;;;9.08;49.58;100554.38;4954047;29;20105;-73
2022/01/30 11:00:07;;;;;;;6.93;3.15;;;;;;;9.27;49.35;100534.94;4957628;29;20445;-72
2022/01/30 11:02:53;;;;;;;6.18;3.50;;;;;;;9.68;49.18;100522.06;4959649;28;20031;-73
2022/01/30 11:05:58;;;;;;;6.10;3.50;;;;;;;9.81;48.76;100526.22;4959066;28;20444;-73
2022/01/30 11:08:47;;;;;;;6.85;3.55;;;;;;;9.71;48.85;100520.28;4957842;29;20455;-72
2022/01/30 11:11:45;;;;;;;8.30;4.05;;;;;;;9.73;48.78;100513.25;4953720;29;20101;-72
2022/01/30 14:40:13;;;;;;;5.60;2.45;;;;;;;12.03;52.59;100266.63;5106389;23;20479;-73
2022/01/30 18:31:28;;;;;;;7.05;4.20;;;;;;;6.42;100.00;100465.66;5882859;23;20047;-73
2022/01/30 18:34:16;;;;;;;8.95;3.92;;;;;;;6.55;100.00;100469.91;4955468;29;20050;-73
2022/01/30 18:37:08;;;;;;;7.00;4.47;;;;;;;6.46;100.00;100467.34;4955396;28;20036;-73
2022/01/30 18:40:10;;;;;;;7.93;4.20;;;;;;;6.38;100.00;100466.53;4955947;29;20457;-73
2022/01/30 18:42:56;;;;;;;8.75;4.53;;;;;;;6.34;100.00;100485.63;4956949;28;20038;-72
2022/01/30 18:45:42;;;;;;;8.18;4.15;;;;;;;6.27;100.00;100480.47;4956450;28;20024;-72
2022/01/30 18:48:28;;;;;;;8.82;3.88;;;;;;;6.39;100.00;100491.66;4959535;29;20055;-73
2022/01/30 18:51:14;;;;;;;8.07;4.00;;;;;;;6.32;100.00;100494.31;4958909;29;20416;-73
2022/01/30 22:00:21;;;;;;;15.45;4.40;;;;;;;5.01;100.00;100578.41;4935554;29;19922;-73
2022/01/30 23:13:15;;;;;;;11.07;3.28;;;;;;;5.28;100.00;100586.22;5813596;23;20528;-72
2022/01/30 23:16:01;;;;;;;18.77;3.40;;;;;;;5.11;100.00;100600.06;4958753;28;20043;-72
2022/01/30 23:18:47;;;;;;;13.18;3.60;;;;;;;4.93;100.00;100597.41;4957547;29;20034;-72
2022/01/30 23:21:34;;;;;;;12.57;3.08;;;;;;;4.70;100.00;100604.22;4959337;29;20031;-72
2022/01/30 23:24:22;;;;;;;23.98;3.33;;;;;;;4.88;100.00;100594.81;4958744;29;20050;-72
2022/01/30 23:27:07;;;;;;;23.00;4.03;;;;;;;5.16;100.00;100588.81;4958168;28;20028;-73
2022/01/30 23:29:55;;;;;;;15.38;3.60;;;;;;;4.76;100.00;100605.16;4958530;29;20031;-72
2022/01/30 23:32:41;;;;;;;18.95;3.72;;;;;;;5.17;100.00;100608.75;4957546;28;20027;-72
